createdAt,value
2023-05-14T00:06:13.971Z,61.95
2023-05-14T00:12:04.732Z,62.38
2023-05-14T00:17:29.476Z,74.25
2023-05-14T00:22:57.701Z,78.48
2023-05-14T00:28:21.956Z,75.14
2023-05-14T00:33:47.334Z,70.77
2023-05-14T00:39:13.016Z,66.62
2023-05-14T00:44:38.548Z,63.72
2023-05-14T00:50:03.256Z,61.40
2023-05-14T00:55:28.659Z,59.69
2023-05-14T01:00:53.805Z,53.25
2023-05-14T01:06:24.476Z,48.58
2023-05-14T01:11:56.119Z,48.28
2023-05-14T01:17:22.008Z,48.56
2023-05-14T01:22:46.624Z,49.21
2023-05-14T01:28:21.267Z,50.05
2023-05-14T01:33:47.179Z,50.82
2023-05-14T01:39:13.244Z,51.72
2023-05-14T01:44:38.558Z,52.40
2023-05-14T01:50:04.093Z,53.18
2023-05-14T01:55:28.798Z,53.92
2023-05-14T02:00:53.499Z,54.46
2023-05-14T02:06:17.528Z,55.16
2023-05-14T02:11:45.371Z,55.71
2023-05-14T02:17:16.231Z,56.16
2023-05-14T02:22:45.939Z,56.52
2023-05-14T02:28:19.392Z,56.98
2023-05-14T02:33:44.338Z,57.32
2023-05-14T02:39:09.260Z,57.69
2023-05-14T02:44:35.016Z,57.93
2023-05-14T02:50:00.298Z,58.14
2023-05-14T02:55:26.789Z,58.49
2023-05-14T03:00:57.748Z,58.96
2023-05-14T03:06:22.806Z,59.56
2023-05-14T03:11:49.822Z,59.89
2023-05-14T03:17:20.714Z,60.41
2023-05-14T03:22:48.460Z,60.65
2023-05-14T03:28:13.298Z,60.81
2023-05-14T03:33:38.809Z,60.96
2023-05-14T03:39:26.655Z,61.11
2023-05-14T03:44:51.415Z,61.35
2023-05-14T03:50:19.430Z,61.57
2023-05-14T03:55:46.044Z,61.67
2023-05-14T04:01:10.233Z,61.80
2023-05-14T04:06:34.755Z,61.92
2023-05-14T04:12:02.498Z,62.03
2023-05-14T04:17:27.551Z,62.13
2023-05-14T04:22:51.795Z,62.29
2023-05-14T04:28:17.142Z,72.77
2023-05-14T04:33:41.307Z,79.79
2023-05-14T04:39:06.776Z,76.28
2023-05-14T04:44:31.278Z,72.47
2023-05-14T04:49:55.672Z,69.35
2023-05-14T04:55:20.613Z,66.13
2023-05-14T05:00:46.581Z,63.75
2023-05-14T05:06:14.429Z,61.24
2023-05-14T05:11:39.229Z,60.53
2023-05-14T05:17:07.084Z,56.21
2023-05-14T05:22:33.630Z,50.05
2023-05-14T05:28:01.580Z,49.48
2023-05-14T05:33:32.399Z,50.64
2023-05-14T05:39:00.923Z,51.40
2023-05-14T05:44:25.379Z,51.77
2023-05-14T05:49:50.325Z,53.76
2023-05-14T05:55:14.276Z,54.93
2023-05-14T06:00:42.055Z,55.75
2023-05-14T06:06:33.855Z,56.88
2023-05-14T06:12:19.075Z,57.29
2023-05-14T06:17:43.924Z,58.80
2023-05-14T06:23:09.801Z,58.60
2023-05-14T06:28:37.716Z,58.92
2023-05-14T06:39:00.162Z,59.11
2023-05-14T06:50:35.856Z,59.20
2023-05-14T06:56:14.030Z,58.75
2023-05-14T07:01:41.497Z,58.74
2023-05-14T07:07:18.641Z,59.15
2023-05-14T07:12:46.372Z,58.81
2023-05-14T07:18:11.962Z,58.80
2023-05-14T07:23:49.358Z,58.63
2023-05-14T07:29:19.477Z,58.79
2023-05-14T07:34:47.439Z,58.74
2023-05-14T07:40:13.749Z,58.39
2023-05-14T07:45:44.794Z,58.33
2023-05-14T07:51:10.279Z,58.06
2023-05-14T07:56:54.292Z,58.04
2023-05-14T08:02:24.848Z,57.91
2023-05-14T08:07:51.982Z,57.59
2023-05-14T08:14:41.678Z,57.21
2023-05-14T08:20:12.459Z,56.95
2023-05-14T08:25:37.365Z,56.78
2023-05-14T08:31:02.022Z,56.60
2023-05-14T08:36:27.230Z,56.62
2023-05-14T08:41:58.138Z,56.27
2023-05-14T08:47:22.669Z,56.00
2023-05-14T08:52:47.528Z,55.70
2023-05-14T08:58:26.694Z,55.57
2023-05-14T09:03:50.890Z,55.05
2023-05-14T09:09:17.957Z,53.92
2023-05-14T09:14:50.796Z,53.34
2023-05-14T09:20:29.343Z,52.26
2023-05-14T09:25:54.769Z,51.63
2023-05-14T09:31:20.149Z,51.68
2023-05-14T09:36:45.316Z,50.71
2023-05-14T09:42:10.438Z,51.25
2023-05-14T09:47:37.630Z,52.02
2023-05-14T09:53:05.264Z,52.05
2023-05-14T09:58:30.538Z,51.83
2023-05-14T10:03:55.480Z,51.53
2023-05-14T10:09:22.509Z,51.29
2023-05-14T10:14:50.065Z,50.83
2023-05-14T10:20:15.962Z,50.43
2023-05-14T10:25:40.184Z,50.01
2023-05-14T10:31:05.186Z,49.47
2023-05-14T10:37:30.460Z,48.78
2023-05-14T10:43:17.196Z,48.82
2023-05-14T10:48:51.937Z,48.84
2023-05-14T10:54:36.207Z,48.66
2023-05-14T11:00:36.299Z,48.13
2023-05-14T11:06:45.674Z,48.42
2023-05-14T11:13:31.401Z,48.17
2023-05-14T11:20:00.918Z,47.93
2023-05-14T11:25:33.662Z,47.81
2023-05-14T11:30:59.666Z,47.77
2023-05-14T11:36:24.585Z,47.58
2023-05-14T11:41:49.981Z,47.45
2023-05-14T11:47:15.673Z,47.31
2023-05-14T11:52:41.931Z,47.06
2023-05-14T11:58:07.613Z,46.79
2023-05-14T12:03:32.224Z,46.41
2023-05-14T12:09:16.175Z,46.10
2023-05-14T12:14:43.140Z,45.27
2023-05-14T12:20:14.304Z,45.33
2023-05-14T12:25:41.758Z,45.41
2023-05-14T12:31:08.746Z,45.18
2023-05-14T12:36:36.984Z,45.25
2023-05-14T12:42:04.506Z,45.52
2023-05-14T12:47:30.299Z,45.64
2023-05-14T12:52:55.843Z,45.75
2023-05-14T12:58:20.802Z,45.83
2023-05-14T13:03:45.341Z,45.86
2023-05-14T13:09:10.647Z,45.93
2023-05-14T13:14:38.377Z,45.90
2023-05-14T13:20:03.541Z,46.10
2023-05-14T13:25:28.252Z,46.33
2023-05-14T13:31:07.053Z,46.14
2023-05-14T13:36:32.702Z,46.20
2023-05-14T13:41:58.151Z,46.22
2023-05-14T13:47:23.142Z,46.32
2023-05-14T13:52:48.699Z,46.10
2023-05-14T13:58:14.407Z,46.05
2023-05-14T14:03:39.787Z,46.08
2023-05-14T14:09:04.858Z,45.95
2023-05-14T14:14:32.317Z,45.99
2023-05-14T14:19:57.549Z,45.87
2023-05-14T14:25:26.270Z,45.60
2023-05-14T14:30:51.303Z,45.37
2023-05-14T14:36:18.571Z,45.34
2023-05-14T14:41:50.362Z,45.03
2023-05-14T14:47:26.057Z,44.81
2023-05-14T14:53:10.547Z,44.73
2023-05-14T14:58:36.056Z,44.46
2023-05-14T15:04:04.721Z,44.41
2023-05-14T15:09:29.044Z,44.55
2023-05-14T15:14:55.556Z,44.57
2023-05-14T15:20:20.630Z,44.85
2023-05-14T15:25:46.175Z,44.87
2023-05-14T15:31:11.830Z,44.88
2023-05-14T15:36:38.065Z,44.71
2023-05-14T15:42:03.121Z,44.70
2023-05-14T15:47:45.188Z,44.72
2023-05-14T15:53:25.004Z,44.75
2023-05-14T15:58:52.844Z,44.72
2023-05-14T16:04:18.747Z,44.69
2023-05-14T16:09:44.042Z,44.66
2023-05-14T16:15:08.664Z,44.67
2023-05-14T16:20:33.194Z,44.57
2023-05-14T16:25:58.211Z,44.47
2023-05-14T16:31:23.009Z,44.29
2023-05-14T16:36:51.017Z,44.31
2023-05-14T16:42:29.745Z,44.30
2023-05-14T16:48:36.798Z,44.29
2023-05-14T16:55:01.871Z,44.44
2023-05-14T17:01:10.077Z,44.50
2023-05-14T17:06:53.920Z,44.64
2023-05-14T17:12:41.567Z,44.72
2023-05-14T17:19:01.251Z,44.81
2023-05-14T17:24:49.070Z,45.10
2023-05-14T17:30:23.932Z,45.37
2023-05-14T17:35:48.735Z,45.70
2023-05-14T17:41:14.476Z,46.09
2023-05-14T17:46:39.639Z,46.53
2023-05-14T17:52:13.770Z,46.74
2023-05-14T17:57:42.477Z,46.67
2023-05-14T18:03:08.358Z,46.88
2023-05-14T18:08:32.633Z,47.52
2023-05-14T18:13:58.544Z,48.00
2023-05-14T18:19:56.559Z,48.28
2023-05-14T18:25:21.218Z,48.67
2023-05-14T18:30:50.999Z,49.07
2023-05-14T18:36:38.753Z,49.42
2023-05-14T18:42:03.936Z,49.44
2023-05-14T18:47:28.908Z,49.61
2023-05-14T18:52:53.544Z,49.82
2023-05-14T18:58:18.012Z,50.64
2023-05-14T19:03:47.014Z,52.49
2023-05-14T19:09:22.008Z,53.07
2023-05-14T19:14:46.156Z,52.50
2023-05-14T19:20:11.377Z,52.44
2023-05-14T19:25:38.870Z,52.40
2023-05-14T19:31:03.303Z,52.55
2023-05-14T19:36:33.928Z,52.57
2023-05-14T19:42:01.018Z,52.70
2023-05-14T19:47:29.423Z,52.92
2023-05-14T19:52:54.539Z,53.21
2023-05-14T19:58:20.032Z,53.53
2023-05-14T20:03:44.661Z,53.85
2023-05-14T20:09:09.356Z,54.12
2023-05-14T20:14:40.498Z,54.67
2023-05-14T20:20:11.316Z,55.15
2023-05-14T20:25:36.002Z,55.56
2023-05-14T20:31:01.424Z,55.96
2023-05-14T20:36:49.270Z,56.25
2023-05-14T20:42:16.186Z,56.23
2023-05-14T20:47:55.792Z,56.16
2023-05-14T20:53:40.564Z,56.22
2023-05-14T20:59:10.944Z,56.89
2023-05-14T21:04:35.211Z,57.58
2023-05-14T21:10:03.068Z,58.09
2023-05-14T21:15:27.856Z,58.47
2023-05-14T21:20:55.620Z,58.58
2023-05-14T21:26:34.539Z,58.69
2023-05-14T21:32:20.742Z,58.88
2023-05-14T21:37:48.778Z,59.15
2023-05-14T21:43:16.096Z,59.48
2023-05-14T21:48:53.746Z,60.00
2023-05-14T21:54:21.120Z,59.79
2023-05-14T21:59:53.094Z,59.47
2023-05-14T22:05:27.859Z,59.95
2023-05-14T22:10:55.419Z,60.49
2023-05-14T22:16:19.734Z,60.98
2023-05-14T22:21:44.027Z,61.21
2023-05-14T22:27:28.183Z,61.03
2023-05-14T22:32:52.321Z,64.12
2023-05-14T22:38:37.911Z,72.72
2023-05-14T22:44:02.811Z,68.55
2023-05-14T22:49:29.324Z,63.75
2023-05-14T22:54:54.801Z,63.14
2023-05-14T23:00:25.593Z,63.99
2023-05-14T23:05:49.705Z,60.96
2023-05-14T23:11:15.356Z,63.51
2023-05-14T23:17:19.900Z,62.37
2023-05-14T23:23:44.583Z,62.47
2023-05-14T23:29:14.945Z,61.07
2023-05-14T23:34:48.132Z,58.97
2023-05-14T23:40:12.635Z,51.43
2023-05-14T23:45:56.244Z,50.26
2023-05-14T23:51:28.039Z,50.35
2023-05-14T23:56:53.018Z,50.83
